createdAt,value
2019-05-18T04:39:08.114Z,8.80
2019-05-18T04:41:13.609Z,8.90
2019-05-18T04:43:19.003Z,9.10
2019-05-18T04:45:24.475Z,9.30
2019-05-18T04:47:29.893Z,9.40
2019-05-18T04:49:35.393Z,9.50
2019-05-18T04:51:40.918Z,9.70
2019-05-18T04:53:46.339Z,9.90
2019-05-18T04:55:51.762Z,10.10
2019-05-18T04:57:57.209Z,10.10
2019-05-18T09:11:24.231Z,15.40
2019-05-18T09:13:29.798Z,15.30
2019-05-18T09:15:34.947Z,15.10
2019-05-18T09:17:40.174Z,15.20
2019-05-18T09:19:45.336Z,15.10
2019-05-18T09:21:50.597Z,15.30
2019-05-18T09:23:55.810Z,15.20
2019-05-18T09:26:03.656Z,15.20
2019-05-18T09:28:08.859Z,15.10
2019-05-18T09:30:14.337Z,15.00
2019-05-18T09:32:19.649Z,15.40
2019-05-18T09:34:24.908Z,15.40
2019-05-18T09:36:30.119Z,15.50
2019-05-18T09:38:35.311Z,15.80
2019-05-18T09:40:40.523Z,15.60
2019-05-18T09:42:45.797Z,15.60
2019-05-18T09:44:51.031Z,15.60
2019-05-18T09:46:56.270Z,15.50
2019-05-18T09:51:06.073Z,15.40
2019-05-18T09:53:11.247Z,15.10
2019-05-18T09:55:16.429Z,15.00
2019-05-18T09:57:21.978Z,15.00
2019-05-18T09:59:27.127Z,14.90
2019-05-18T10:01:32.267Z,15.30
2019-05-18T10:03:37.402Z,14.90
2019-05-18T10:05:42.567Z,15.10
2019-05-18T10:07:47.699Z,15.00
2019-05-18T10:09:52.958Z,15.20
2019-05-18T10:11:58.157Z,15.20
2019-05-18T10:14:03.329Z,14.90
2019-05-18T10:16:08.511Z,14.70
2019-05-18T10:18:13.662Z,14.90
2019-05-18T10:20:18.950Z,15.20
2019-05-18T10:22:24.134Z,15.50
2019-05-18T10:24:29.346Z,15.90
2019-05-18T10:26:34.543Z,16.30
2019-05-18T10:28:39.725Z,16.50
2019-05-18T10:30:44.935Z,17.00
2019-05-18T10:32:50.127Z,17.70
2019-05-18T10:34:55.395Z,17.40
